Time;durP1;ratioP1;P1;durP2;ratioP2;P2;SDS_P1;SDS_P2;PMS_P1;PMS_P2;Temp;Humidity;BMP_temperature;BMP_pressure;BME280_temperature;BME280_humidity;BME280_pressure;Samples;Min_cycle;Max_cycle;Signal;HPM_P1;HPM_P2
2023/04/25 00:02:14;;;;;;;;;;;6.70;99.90;;;;;;8274344;28;19971;-77
2023/04/25 00:06:15;;;;;;;;;;;6.70;99.90;;;;;;8289180;28;19920;-77
2023/04/25 00:10:15;;;;;;;;;;;6.80;99.90;;;;;;8288591;28;19913;-77
2023/04/25 00:14:16;;;;;;;;;;;6.70;99.90;;;;;;8285319;28;19920;-76
2023/04/25 00:18:17;;;;;;;;;;;6.40;99.90;;;;;;8290439;28;19956;-77
2023/04/25 00:22:18;;;;;;;;;;;6.50;99.90;;;;;;8291340;28;19948;-77
2023/04/25 00:26:18;;;;;;;;;;;6.40;99.90;;;;;;8282129;28;19926;-77
2023/04/25 00:30:19;;;;;;;;;;;6.80;99.90;;;;;;8282442;28;19918;-77
2023/04/25 00:34:20;;;;;;;;;;;6.70;99.90;;;;;;8271684;28;19921;-77
2023/04/25 00:38:20;;;;;;;;;;;6.60;99.90;;;;;;8289605;28;19925;-78
2023/04/25 00:42:21;;;;;;;;;;;6.60;99.90;;;;;;8291083;28;20063;-77
2023/04/25 00:46:21;;;;;;;;;;;6.70;99.90;;;;;;8290735;28;19920;-77
2023/04/25 00:50:22;;;;;;;;;;;7.00;99.90;;;;;;8287331;28;19914;-76
2023/04/25 00:54:22;;;;;;;;;;;7.00;99.90;;;;;;8293450;28;20014;-77
2023/04/25 00:58:23;;;;;;;;;;;7.00;99.90;;;;;;8295492;28;19910;-78
2023/04/25 01:02:25;;;;;;;;;;;7.00;99.90;;;;;;8278323;28;19917;-77
2023/04/25 01:06:27;;;;;;;;;;;7.00;99.90;;;;;;8293128;28;19909;-76
2023/04/25 01:10:27;;;;;;;;;;;7.10;99.90;;;;;;8287794;28;20401;-78
2023/04/25 01:14:28;;;;;;;;;;;7.20;99.90;;;;;;8287961;28;19914;-76
2023/04/25 01:18:29;;;;;;;;;;;7.10;99.90;;;;;;8294993;28;19909;-77
2023/04/25 01:22:29;;;;;;;;;;;7.00;99.90;;;;;;8293263;28;19925;-76
2023/04/25 01:26:30;;;;;;;;;;;6.60;99.90;;;;;;8291831;28;19928;-75
2023/04/25 01:30:30;;;;;;;;;;;6.60;99.90;;;;;;8290126;28;19917;-76
2023/04/25 01:34:31;;;;;;;;;;;6.20;99.90;;;;;;8290759;28;20390;-76
2023/04/25 01:38:31;;;;;;;;;;;6.10;99.90;;;;;;8293423;28;19914;-77
2023/04/25 01:42:32;;;;;;;;;;;6.10;99.90;;;;;;8274100;28;19979;-77
2023/04/25 01:46:34;;;;;;;;;;;5.90;99.90;;;;;;8290421;28;20369;-77
2023/04/25 01:50:34;;;;;;;;;;;5.90;99.90;;;;;;8289630;28;20426;-76
2023/04/25 01:54:35;;;;;;;;;;;5.90;99.90;;;;;;8295882;28;19917;-77
2023/04/25 01:58:35;;;;;;;;;;;5.80;99.90;;;;;;8292061;28;19914;-76
2023/04/25 02:02:36;;;;;;;;;;;5.80;99.90;;;;;;8285547;28;19921;-76
2023/04/25 02:06:36;;;;;;;;;;;5.80;99.90;;;;;;8268204;28;19914;-77
2023/04/25 02:10:37;;;;;;;;;;;5.80;99.90;;;;;;8292622;28;20382;-77
2023/04/25 02:14:37;;;;;;;;;;;5.80;99.90;;;;;;8291422;28;19913;-77
2023/04/25 02:18:39;;;;;;;;;;;5.90;99.90;;;;;;8293055;28;20397;-78
2023/04/25 02:22:39;;;;;;;;;;;5.70;99.90;;;;;;8283956;28;19925;-78
2023/04/25 02:26:40;;;;;;;;;;;5.70;99.90;;;;;;8290742;28;19914;-77
2023/04/25 02:30:40;;;;;;;;;;;5.80;99.90;;;;;;8292928;28;19914;-77
2023/04/25 02:34:40;;;;;;;;;;;5.80;99.90;;;;;;8290258;28;19949;-78
2023/04/25 02:38:41;;;;;;;;;;;5.90;99.90;;;;;;8290195;28;19969;-77
2023/04/25 02:42:41;;;;;;;;;;;5.90;99.90;;;;;;8270809;28;19925;-76
2023/04/25 02:46:42;;;;;;;;;;;6.10;99.90;;;;;;8273265;28;19910;-77
2023/04/25 02:50:42;;;;;;;;;;;6.10;99.90;;;;;;8274330;28;19968;-77
2023/04/25 02:54:43;;;;;;;;;;;6.10;99.90;;;;;;8286105;28;20403;-77
2023/04/25 02:58:44;;;;;;;;;;;6.30;99.90;;;;;;8273808;28;19910;-77
2023/04/25 03:02:44;;;;;;;;;;;6.40;99.90;;;;;;8292646;28;20212;-77
2023/04/25 03:06:45;;;;;;;;;;;6.20;99.90;;;;;;8288934;28;19913;-77
2023/04/25 03:10:45;;;;;;;;;;;6.20;99.90;;;;;;8282961;28;19913;-77
2023/04/25 03:14:46;;;;;;;;;;;6.10;99.90;;;;;;8271961;28;20325;-76
2023/04/25 03:18:47;;;;;;;;;;;;;;;;;;8291677;28;20279;-77
2023/04/25 03:22:47;;;;;;;;;;;6.70;99.90;;;;;;8290870;28;20330;-77
2023/04/25 03:26:47;;;;;;;;;;;6.20;99.90;;;;;;8288214;28;19959;-77
2023/04/25 03:30:48;;;;;;;;;;;6.20;99.90;;;;;;8294656;28;19914;-76
2023/04/25 03:34:48;;;;;;;;;;;6.30;99.90;;;;;;8289320;28;19913;-76
2023/04/25 03:38:49;;;;;;;;;;;6.30;99.90;;;;;;8273700;28;20012;-76
2023/04/25 03:42:50;;;;;;;;;;;6.20;99.90;;;;;;8279961;28;20015;-76
2023/04/25 03:46:50;;;;;;;;;;;6.30;99.90;;;;;;8273133;28;19967;-76
2023/04/25 03:50:51;;;;;;;;;;;6.40;99.90;;;;;;8273463;28;19914;-76
2023/04/25 03:54:51;;;;;;;;;;;6.20;99.90;;;;;;8274789;28;19917;-77
2023/04/25 03:58:52;;;;;;;;;;;6.30;99.90;;;;;;8293068;28;19917;-76
2023/04/25 04:02:52;;;;;;;;;;;6.00;99.90;;;;;;8287543;28;19918;-76
2023/04/25 04:06:53;;;;;;;;;;;5.90;99.90;;;;;;8297043;28;20404;-81
2023/04/25 04:10:53;;;;;;;;;;;5.90;99.90;;;;;;8306788;28;19914;-76
2023/04/25 04:14:54;;;;;;;;;;;5.70;99.90;;;;;;8279098;28;19920;-77
2023/04/25 04:18:54;;;;;;;;;;;5.60;99.90;;;;;;8291513;28;19910;-77
2023/04/25 04:22:55;;;;;;;;;;;5.60;99.90;;;;;;8298667;28;20008;-77
2023/04/25 04:26:56;;;;;;;;;;;5.60;99.90;;;;;;8301451;28;20429;-76
2023/04/25 04:30:57;;;;;;;;;;;5.50;99.90;;;;;;8302261;28;19985;-76
2023/04/25 04:34:57;;;;;;;;;;;5.60;99.90;;;;;;8306788;28;19913;-77
2023/04/25 04:38:58;;;;;;;;;;;5.70;99.90;;;;;;8288025;28;20320;-78
2023/04/25 04:42:58;;;;;;;;;;;5.80;99.90;;;;;;8301029;28;19917;-78
2023/04/25 04:46:59;;;;;;;;;;;5.80;99.90;;;;;;8306714;28;19910;-77
2023/04/25 04:51:00;;;;;;;;;;;5.70;99.90;;;;;;8298790;28;20259;-76
2023/04/25 04:55:00;;;;;;;;;;;5.90;99.90;;;;;;8299263;28;19922;-77
2023/04/25 04:59:02;;;;;;;;;;;5.80;99.90;;;;;;8298701;28;19916;-77
2023/04/25 05:03:03;;;;;;;;;;;5.80;99.90;;;;;;8297205;28;20453;-78
2023/04/25 05:07:03;;;;;;;;;;;5.80;99.90;;;;;;8301179;28;19913;-77
2023/04/25 05:11:03;;;;;;;;;;;5.90;99.90;;;;;;8280753;28;19913;-76
2023/04/25 05:15:04;;;;;;;;;;;6.10;99.90;;;;;;8289267;28;19945;-76
2023/04/25 05:19:05;;;;;;;;;;;6.10;99.90;;;;;;8278385;28;19964;-77
2023/04/25 05:23:05;;;;;;;;;;;6.00;99.90;;;;;;8293853;28;19983;-83
2023/04/25 05:27:06;;;;;;;;;;;6.00;99.90;;;;;;8280075;28;19913;-83
2023/04/25 05:31:06;;;;;;;;;;;5.90;99.90;;;;;;8295659;28;19942;-83
2023/04/25 05:35:07;;;;;;;;;;;5.90;99.90;;;;;;8274454;28;19913;-83
2023/04/25 05:39:08;;;;;;;;;;;6.00;99.90;;;;;;8273447;28;19921;-82
2023/04/25 05:43:09;;;;;;;;;;;6.20;99.90;;;;;;8293112;28;20048;-84
2023/04/25 05:47:09;;;;;;;;;;;6.60;99.90;;;;;;8277106;28;20425;-83
2023/04/25 05:51:10;;;;;;;;;;;7.10;99.90;;;;;;8283419;28;20052;-83
2023/04/25 05:55:10;;;;;;;;;;;8.20;99.90;;;;;;8279579;28;19967;-77
2023/04/25 05:59:10;;;;;;;;;;;8.90;99.90;;;;;;8276467;28;20561;-78
2023/04/25 06:03:11;;;;;;;;;;;9.50;99.90;;;;;;8291761;28;20279;-78
2023/04/25 06:07:12;;;;;;;;;;;10.60;99.90;;;;;;8296325;28;19920;-79
2023/04/25 06:11:13;;;;;;;;;;;11.60;99.90;;;;;;8295533;28;19937;-78
2023/04/25 06:15:13;;;;;;;;;;;11.60;99.90;;;;;;8291180;28;19914;-78
2023/04/25 06:19:14;;;;;;;;;;;11.00;99.90;;;;;;8298688;28;19913;-79
2023/04/25 06:23:14;;;;;;;;;;;10.40;99.90;;;;;;8284335;28;19925;-79
2023/04/25 06:27:15;;;;;;;;;;;10.60;99.90;;;;;;8273972;28;20636;-78
2023/04/25 06:31:15;;;;;;;;;;;11.70;99.90;;;;;;8291519;28;20459;-78
2023/04/25 06:35:16;;;;;;;;;;;12.70;99.90;;;;;;8274626;28;19913;-79
2023/04/25 06:39:16;;;;;;;;;;;13.00;99.90;;;;;;8277929;28;19925;-78
2023/04/25 06:43:17;;;;;;;;;;;13.70;99.90;;;;;;8285732;28;19960;-78
2023/04/25 06:47:17;;;;;;;;;;;14.40;99.90;;;;;;8280876;28;19921;-79
2023/04/25 06:51:18;;;;;;;;;;;13.80;99.90;;;;;;8291204;28;19914;-78
2023/04/25 06:55:18;;;;;;;;;;;13.50;99.90;;;;;;8288481;28;19964;-79
2023/04/25 06:59:18;;;;;;;;;;;13.90;99.90;;;;;;8279837;28;19910;-79
2023/04/25 07:03:19;;;;;;;;;;;13.70;99.90;;;;;;8273341;28;19924;-79
2023/04/25 07:07:20;;;;;;;;;;;13.90;99.90;;;;;;8282789;28;19975;-78
2023/04/25 07:11:20;;;;;;;;;;;14.10;99.90;;;;;;8259146;28;19929;-79
2023/04/25 07:15:20;;;;;;;;;;;14.10;99.90;;;;;;8286679;28;19922;-79
2023/04/25 07:19:21;;;;;;;;;;;14.90;99.90;;;;;;8275119;28;19910;-79
2023/04/25 07:23:21;;;;;;;;;;;15.60;99.90;;;;;;8289976;28;19977;-78
2023/04/25 07:27:22;;;;;;;;;;;15.80;99.90;;;;;;8291686;28;19913;-78
2023/04/25 07:31:24;;;;;;;;;;;15.50;99.90;;;;;;8286943;28;21545;-77
2023/04/25 07:35:25;;;;;;;;;;;15.30;99.90;;;;;;8288384;28;19921;-82
2023/04/25 07:39:26;;;;;;;;;;;14.40;99.90;;;;;;8286661;28;19914;-78
2023/04/25 07:43:26;;;;;;;;;;;14.30;99.90;;;;;;8264011;28;19913;-78
2023/04/25 07:47:27;;;;;;;;;;;14.00;99.90;;;;;;8268466;28;19944;-78
2023/04/25 07:51:27;;;;;;;;;;;14.20;99.90;;;;;;8263324;28;19921;-77
2023/04/25 07:55:28;;;;;;;;;;;14.10;99.90;;;;;;8263158;28;19984;-79
2023/04/25 07:59:28;;;;;;;;;;;14.10;99.90;;;;;;8264964;28;19917;-78
2023/04/25 08:03:28;;;;;;;;;;;13.90;99.90;;;;;;8289490;28;19917;-79
2023/04/25 08:07:29;;;;;;;;;;;13.90;99.90;;;;;;8279706;28;20003;-78
2023/04/25 08:11:29;;;;;;;;;;;13.80;99.90;;;;;;8268646;28;19925;-77
2023/04/25 08:15:30;;;;;;;;;;;13.20;99.90;;;;;;8272629;28;20027;-78
2023/04/25 08:19:31;;;;;;;;;;;12.70;99.90;;;;;;8274027;28;20356;-76
2023/04/25 08:23:31;;;;;;;;;;;12.60;99.90;;;;;;8285860;28;19925;-77
2023/04/25 08:27:31;;;;;;;;;;;12.40;99.90;;;;;;8288997;28;20484;-77
2023/04/25 08:31:32;;;;;;;;;;;12.20;99.90;;;;;;8285410;28;19964;-78
2023/04/25 08:35:33;;;;;;;;;;;11.90;99.90;;;;;;8264009;28;19941;-77
2023/04/25 08:39:33;;;;;;;;;;;11.40;99.90;;;;;;8269722;28;19910;-78
2023/04/25 08:43:34;;;;;;;;;;;10.90;99.90;;;;;;8286845;28;20282;-77
2023/04/25 08:47:37;;;;;;;;;;;11.00;99.90;;;;;;8270922;28;19914;-76
2023/04/25 08:51:45;;;;;;;;;;;11.30;99.90;;;;;;8279918;28;19913;-77
2023/04/25 08:55:46;;;;;;;;;;;11.70;99.90;;;;;;8285873;28;19918;-77
2023/04/25 08:59:46;;;;;;;;;;;11.50;99.90;;;;;;8286654;28;19913;-78
2023/04/25 09:03:47;;;;;;;;;;;11.40;99.90;;;;;;8283724;28;20525;-78
2023/04/25 09:07:47;;;;;;;;;;;11.40;99.90;;;;;;8274690;28;19921;-77
2023/04/25 09:11:48;;;;;;;;;;;11.60;99.90;;;;;;8285348;28;19914;-77
2023/04/25 09:15:49;;;;;;;;;;;11.70;99.90;;;;;;8294916;28;20011;-77
2023/04/25 09:19:50;;;;;;;;;;;11.80;99.90;;;;;;8291209;28;19952;-76
2023/04/25 09:23:52;;;;;;;;;;;11.20;99.90;;;;;;8279620;28;19947;-84
2023/04/25 09:27:53;;;;;;;;;;;9.90;99.90;;;;;;8306728;28;19909;-82
2023/04/25 09:32:10;;;;;;;;;;;9.10;99.90;;;;;;8299314;28;20330;-83
2023/04/25 09:36:13;;;;;;;;;;;8.50;99.90;;;;;;8279694;28;20009;-83
2023/04/25 09:40:14;;;;;;;;;;;7.90;99.90;;;;;;8295189;28;19956;-83
2023/04/25 09:44:14;;;;;;;;;;;7.60;99.90;;;;;;8286557;28;20370;-83
2023/04/25 09:48:19;;;;;;;;;;;7.30;99.90;;;;;;8300012;28;19916;-77
2023/04/25 09:52:20;;;;;;;;;;;7.30;99.90;;;;;;8273448;28;19916;-77
2023/04/25 09:56:22;;;;;;;;;;;7.20;99.90;;;;;;8286845;28;19932;-77
2023/04/25 10:00:22;;;;;;;;;;;7.00;99.90;;;;;;8291153;28;20467;-77
2023/04/25 10:04:25;;;;;;;;;;;7.00;99.90;;;;;;8292192;28;19920;-80
2023/04/25 10:08:33;;;;;;;;;;;7.20;99.90;;;;;;8291215;28;20404;-77
2023/04/25 10:12:33;;;;;;;;;;;7.20;99.90;;;;;;8288577;28;19924;-78
2023/04/25 10:16:35;;;;;;;;;;;7.20;99.90;;;;;;8272861;28;19914;-77
2023/04/25 10:20:36;;;;;;;;;;;7.10;99.90;;;;;;8289123;28;19918;-78
2023/04/25 10:24:38;;;;;;;;;;;7.30;99.90;;;;;;8272491;28;19917;-78
2023/04/25 10:28:58;;;;;;;;;;;7.30;99.90;;;;;;8272172;28;19917;-77
2023/04/25 10:32:59;;;;;;;;;;;7.30;99.90;;;;;;8265099;28;19917;-78
2023/04/25 10:37:03;;;;;;;;;;;7.00;99.90;;;;;;8270661;28;20009;-78
2023/04/25 10:41:10;;;;;;;;;;;7.10;99.90;;;;;;8274412;28;20412;-78
2023/04/25 10:45:11;;;;;;;;;;;7.40;99.90;;;;;;8288062;28;19925;-79
2023/04/25 10:49:27;;;;;;;;;;;7.60;99.90;;;;;;8283655;28;19909;-77
2023/04/25 10:53:30;;;;;;;;;;;7.90;99.90;;;;;;8269039;28;19915;-78
2023/04/25 10:57:41;;;;;;;;;;;8.00;99.90;;;;;;8272925;28;19925;-78
2023/04/25 11:02:01;;;;;;;;;;;7.90;99.90;;;;;;8274492;28;19921;-78
2023/04/25 11:06:02;;;;;;;;;;;8.00;99.90;;;;;;8291391;28;19920;-79
2023/04/25 11:10:04;;;;;;;;;;;8.20;99.90;;;;;;8273406;28;20513;-78
2023/04/25 11:14:04;;;;;;;;;;;8.30;99.90;;;;;;8288403;28;19909;-77
2023/04/25 11:18:05;;;;;;;;;;;8.30;99.90;;;;;;8273801;28;19963;-78
2023/04/25 11:22:06;;;;;;;;;;;8.60;99.90;;;;;;8290318;28;20370;-78
2023/04/25 11:26:07;;;;;;;;;;;8.60;99.90;;;;;;8272379;28;19916;-78
2023/04/25 11:30:11;;;;;;;;;;;8.50;99.90;;;;;;8290398;28;19910;-78
2023/04/25 11:34:16;;;;;;;;;;;8.20;99.90;;;;;;8268139;28;20329;-78
2023/04/25 11:38:16;;;;;;;;;;;8.00;99.90;;;;;;8290646;28;19910;-77
2023/04/25 11:42:17;;;;;;;;;;;8.10;99.90;;;;;;8290437;28;19918;-77
2023/04/25 11:46:19;;;;;;;;;;;8.00;99.90;;;;;;8289855;28;20004;-77
2023/04/25 11:50:20;;;;;;;;;;;8.30;99.90;;;;;;8288991;28;19909;-78
2023/04/25 11:54:21;;;;;;;;;;;9.00;99.90;;;;;;8290148;28;20376;-78
2023/04/25 11:58:21;;;;;;;;;;;9.50;99.90;;;;;;8289931;28;19909;-78
2023/04/25 12:02:25;;;;;;;;;;;9.90;99.90;;;;;;8290031;28;20543;-80
2023/04/25 12:06:29;;;;;;;;;;;9.50;99.90;;;;;;8290241;28;20005;-78
2023/04/25 12:10:29;;;;;;;;;;;9.30;99.90;;;;;;8289852;28;20555;-78
2023/04/25 12:14:31;;;;;;;;;;;9.30;99.90;;;;;;8290517;28;19914;-78
2023/04/25 12:18:35;;;;;;;;;;;8.70;99.90;;;;;;8273801;28;19925;-77
2023/04/25 12:22:36;;;;;;;;;;;8.40;99.90;;;;;;8289497;28;19913;-78
2023/04/25 12:26:55;;;;;;;;;;;8.20;99.90;;;;;;8287792;28;19917;-78
2023/04/25 12:31:04;;;;;;;;;;;8.10;99.90;;;;;;8288202;28;19916;-78
2023/04/25 12:35:06;;;;;;;;;;;8.40;99.90;;;;;;8288464;28;19909;-78
2023/04/25 12:39:07;;;;;;;;;;;8.40;99.90;;;;;;8271749;28;19920;-77
2023/04/25 12:43:07;;;;;;;;;;;7.80;99.90;;;;;;8275349;28;19941;-79
2023/04/25 12:47:07;;;;;;;;;;;7.30;99.90;;;;;;8296023;28;20445;-78
2023/04/25 12:51:08;;;;;;;;;;;7.40;99.90;;;;;;8280240;28;19914;-77
2023/04/25 12:55:08;;;;;;;;;;;7.30;99.90;;;;;;8283352;28;19937;-77
2023/04/25 12:59:09;;;;;;;;;;;7.40;99.90;;;;;;8278150;28;19960;-78
2023/04/25 13:03:10;;;;;;;;;;;7.50;99.90;;;;;;8294825;28;19913;-77
2023/04/25 13:07:11;;;;;;;;;;;7.80;99.90;;;;;;8277658;28;20382;-78
2023/04/25 13:11:11;;;;;;;;;;;7.80;99.90;;;;;;8288878;28;19959;-77
2023/04/25 13:15:12;;;;;;;;;;;8.00;99.90;;;;;;8293670;28;19909;-78
2023/04/25 13:19:12;;;;;;;;;;;8.20;99.90;;;;;;8295044;28;19909;-77
2023/04/25 13:23:13;;;;;;;;;;;8.40;99.90;;;;;;8293698;28;20401;-78
2023/04/25 13:27:13;;;;;;;;;;;7.90;99.90;;;;;;8298556;28;19917;-77
2023/04/25 13:31:14;;;;;;;;;;;7.60;99.90;;;;;;8294114;28;20054;-78
2023/04/25 13:35:15;;;;;;;;;;;7.60;99.90;;;;;;8297166;28;19913;-78
2023/04/25 13:39:15;;;;;;;;;;;7.70;99.90;;;;;;8277918;28;19910;-77
2023/04/25 13:43:16;;;;;;;;;;;7.70;99.90;;;;;;8294349;28;19917;-78
2023/04/25 13:47:16;;;;;;;;;;;7.60;99.90;;;;;;8292921;28;20347;-77
2023/04/25 13:51:17;;;;;;;;;;;8.30;99.90;;;;;;8277711;28;19914;-79
2023/04/25 13:55:18;;;;;;;;;;;9.30;99.90;;;;;;8288413;28;20557;-79
2023/04/25 13:59:18;;;;;;;;;;;10.20;99.90;;;;;;8269482;28;20004;-78
2023/04/25 14:03:19;;;;;;;;;;;11.30;99.90;;;;;;8296577;28;19952;-78
2023/04/25 14:07:20;;;;;;;;;;;11.50;99.90;;;;;;8293572;28;20459;-78
2023/04/25 14:11:21;;;;;;;;;;;13.30;99.90;;;;;;8293044;28;20419;-77
2023/04/25 14:15:21;;;;;;;;;;;12.60;99.90;;;;;;8293582;28;19920;-77
2023/04/25 14:19:22;;;;;;;;;;;11.30;99.90;;;;;;8290010;28;19918;-77
2023/04/25 14:23:22;;;;;;;;;;;10.60;99.90;;;;;;8275827;28;19956;-78
2023/04/25 14:27:23;;;;;;;;;;;11.50;99.90;;;;;;8276871;28;20000;-78
2023/04/25 14:31:23;;;;;;;;;;;10.80;99.90;;;;;;8282433;28;19913;-77
2023/04/25 14:35:24;;;;;;;;;;;10.80;99.90;;;;;;8269333;28;19917;-77
2023/04/25 14:39:24;;;;;;;;;;;10.60;99.90;;;;;;8264127;28;19940;-78
2023/04/25 14:43:25;;;;;;;;;;;10.00;99.90;;;;;;8287903;28;19960;-77
2023/04/25 14:47:25;;;;;;;;;;;10.70;99.90;;;;;;8271179;28;19914;-75
2023/04/25 14:51:26;;;;;;;;;;;13.40;99.90;;;;;;8271658;28;19972;-77
2023/04/25 14:55:27;;;;;;;;;;;13.60;99.90;;;;;;8292635;28;19928;-77
2023/04/25 14:59:27;;;;;;;;;;;12.30;99.90;;;;;;8273358;28;19921;-77
2023/04/25 15:03:28;;;;;;;;;;;11.10;99.90;;;;;;8284917;28;19921;-77
2023/04/25 15:07:29;;;;;;;;;;;10.80;99.90;;;;;;8285051;28;19914;-78
2023/04/25 15:11:29;;;;;;;;;;;10.60;99.90;;;;;;8271373;28;19909;-78
2023/04/25 15:15:30;;;;;;;;;;;10.30;99.90;;;;;;8275136;28;19917;-77
2023/04/25 15:19:30;;;;;;;;;;;10.00;99.90;;;;;;8284658;28;19914;-77
2023/04/25 15:23:31;;;;;;;;;;;9.90;99.90;;;;;;8289041;28;19925;-77
2023/04/25 15:27:31;;;;;;;;;;;9.80;99.90;;;;;;8287869;28;19917;-77
2023/04/25 15:31:32;;;;;;;;;;;9.80;99.90;;;;;;8288704;28;19921;-78
2023/04/25 15:35:32;;;;;;;;;;;10.00;99.90;;;;;;8277457;28;19923;-78
2023/04/25 15:39:32;;;;;;;;;;;10.00;99.90;;;;;;8284998;28;19940;-77
2023/04/25 15:43:37;;;;;;;;;;;10.50;99.90;;;;;;8270479;28;19968;-77
2023/04/25 15:47:37;;;;;;;;;;;10.80;99.90;;;;;;8287960;28;19968;-76
2023/04/25 15:51:38;;;;;;;;;;;11.80;99.90;;;;;;8278747;28;19917;-79
2023/04/25 15:55:38;;;;;;;;;;;12.00;99.90;;;;;;8268596;28;20200;-77
2023/04/25 15:59:39;;;;;;;;;;;12.00;99.90;;;;;;8270413;28;19936;-77
2023/04/25 16:03:39;;;;;;;;;;;11.40;99.90;;;;;;8280783;28;20060;-77
2023/04/25 16:07:41;;;;;;;;;;;11.00;99.90;;;;;;8270699;28;20352;-77
2023/04/25 16:11:41;;;;;;;;;;;10.70;99.90;;;;;;8283306;28;19918;-77
2023/04/25 16:15:41;;;;;;;;;;;10.30;99.90;;;;;;8289241;28;19913;-77
2023/04/25 16:19:42;;;;;;;;;;;10.00;99.90;;;;;;8292934;28;19959;-77
2023/04/25 16:23:42;;;;;;;;;;;10.00;99.90;;;;;;8296252;28;19921;-76
2023/04/25 16:27:43;;;;;;;;;;;10.30;99.90;;;;;;8273862;28;19913;-77
2023/04/25 16:31:44;;;;;;;;;;;10.40;99.90;;;;;;8294837;28;19916;-78
2023/04/25 16:35:45;;;;;;;;;;;10.30;99.90;;;;;;8296950;28;20336;-77
2023/04/25 16:39:46;;;;;;;;;;;10.30;99.90;;;;;;8283212;28;19913;-78
2023/04/25 16:43:47;;;;;;;;;;;10.20;99.90;;;;;;8273453;28;19952;-76
2023/04/25 16:47:47;;;;;;;;;;;10.40;99.90;;;;;;8298031;28;19967;-78
2023/04/25 16:51:47;;;;;;;;;;;10.50;99.90;;;;;;8293475;28;20003;-78
2023/04/25 16:55:48;;;;;;;;;;;10.20;99.90;;;;;;8292896;28;20409;-77
2023/04/25 16:59:49;;;;;;;;;;;9.70;99.90;;;;;;8278420;28;19921;-77
2023/04/25 17:03:49;;;;;;;;;;;9.30;99.90;;;;;;8264409;28;19922;-79
2023/04/25 17:07:51;;;;;;;;;;;9.30;99.90;;;;;;8297996;28;19940;-77
2023/04/25 17:11:51;;;;;;;;;;;9.10;99.90;;;;;;8287713;28;20016;-77
2023/04/25 17:15:51;;;;;;;;;;;9.10;99.90;;;;;;8275874;28;19921;-78
2023/04/25 17:19:52;;;;;;;;;;;9.30;99.90;;;;;;8289435;28;20433;-77
2023/04/25 17:23:52;;;;;;;;;;;9.30;99.90;;;;;;8275757;28;19953;-77
2023/04/25 17:27:53;;;;;;;;;;;9.20;99.90;;;;;;8295211;28;19918;-77
2023/04/25 17:31:55;;;;;;;;;;;9.20;99.90;;;;;;8274933;28;19917;-77
2023/04/25 17:35:56;;;;;;;;;;;9.20;99.90;;;;;;8290537;28;20397;-77
2023/04/25 17:39:56;;;;;;;;;;;9.30;99.90;;;;;;8290184;28;19968;-78
2023/04/25 17:43:57;;;;;;;;;;;9.10;99.90;;;;;;8287422;28;19921;-77
2023/04/25 17:47:57;;;;;;;;;;;9.00;99.90;;;;;;8288390;28;19921;-77
2023/04/25 17:51:58;;;;;;;;;;;8.90;99.90;;;;;;8291261;28;19948;-82
2023/04/25 17:55:59;;;;;;;;;;;8.70;99.90;;;;;;8286399;28;20294;-77
2023/04/25 17:59:59;;;;;;;;;;;8.40;99.90;;;;;;8288571;28;19961;-77
2023/04/25 18:04:00;;;;;;;;;;;8.30;99.90;;;;;;8271173;28;19929;-78
2023/04/25 18:08:00;;;;;;;;;;;8.20;99.90;;;;;;8265491;28;19967;-78
2023/04/25 18:12:02;;;;;;;;;;;8.00;99.90;;;;;;8290203;28;19922;-77
2023/04/25 18:16:03;;;;;;;;;;;8.00;99.90;;;;;;8287182;28;20761;-77
2023/04/25 18:20:05;;;;;;;;;;;7.80;99.90;;;;;;8285618;28;19913;-78
2023/04/25 18:24:08;;;;;;;;;;;7.80;99.90;;;;;;8293453;28;20573;-78
2023/04/25 18:28:08;;;;;;;;;;;7.70;99.90;;;;;;8276384;28;19917;-77
2023/04/25 18:32:09;;;;;;;;;;;7.60;99.90;;;;;;8295520;28;19924;-77
2023/04/25 18:36:09;;;;;;;;;;;7.50;99.90;;;;;;8280864;28;19921;-78
2023/04/25 18:40:12;;;;;;;;;;;7.60;99.90;;;;;;8278527;28;19921;-77
2023/04/25 18:44:13;;;;;;;;;;;7.50;99.90;;;;;;8274222;28;19928;-77
2023/04/25 18:48:13;;;;;;;;;;;7.50;99.90;;;;;;8300075;28;19947;-78
2023/04/25 18:52:14;;;;;;;;;;;7.70;99.90;;;;;;8299297;28;20527;-77
2023/04/25 18:56:16;;;;;;;;;;;7.50;99.90;;;;;;8279346;28;19924;-77
2023/04/25 19:00:16;;;;;;;;;;;7.30;99.90;;;;;;8294950;28;19932;-78
2023/04/25 19:04:17;;;;;;;;;;;7.30;99.90;;;;;;8278732;28;20476;-78
2023/04/25 19:08:17;;;;;;;;;;;7.30;99.90;;;;;;8296071;28;19917;-78
2023/04/25 19:12:18;;;;;;;;;;;7.20;99.90;;;;;;8297768;28;19917;-78
2023/04/25 19:16:18;;;;;;;;;;;7.40;99.90;;;;;;8295185;28;19917;-79
2023/04/25 19:20:19;;;;;;;;;;;7.50;99.90;;;;;;8298808;28;19996;-77
2023/04/25 19:24:20;;;;;;;;;;;7.30;99.90;;;;;;8294793;28;19918;-78
2023/04/25 19:28:20;;;;;;;;;;;7.30;99.90;;;;;;8287252;28;19917;-78
2023/04/25 19:32:21;;;;;;;;;;;7.40;99.90;;;;;;8281928;28;19928;-78
2023/04/25 19:36:23;;;;;;;;;;;7.30;99.90;;;;;;8278436;28;20040;-77
2023/04/25 19:40:24;;;;;;;;;;;7.20;99.90;;;;;;8277523;28;20009;-78
2023/04/25 19:44:25;;;;;;;;;;;7.10;99.90;;;;;;8304214;28;19921;-77
2023/04/25 19:48:25;;;;;;;;;;;6.90;99.90;;;;;;8282510;28;19944;-79
2023/04/25 19:52:26;;;;;;;;;;;6.90;99.90;;;;;;8296794;28;20389;-78
2023/04/25 19:56:26;;;;;;;;;;;6.90;99.90;;;;;;8294998;28;20592;-77
2023/04/25 20:00:27;;;;;;;;;;;6.80;99.90;;;;;;8303701;28;19944;-80
2023/04/25 20:04:27;;;;;;;;;;;6.80;99.90;;;;;;8290071;28;19913;-78
2023/04/25 20:08:28;;;;;;;;;;;6.90;99.90;;;;;;8272065;28;20036;-77
2023/04/25 20:12:28;;;;;;;;;;;6.90;99.90;;;;;;8267153;28;19924;-78
2023/04/25 20:16:28;;;;;;;;;;;7.00;99.90;;;;;;8271369;28;20559;-78
2023/04/25 20:20:29;;;;;;;;;;;7.20;99.90;;;;;;8288122;28;20462;-78
2023/04/25 20:24:30;;;;;;;;;;;7.20;99.90;;;;;;8272670;28;20404;-78
2023/04/25 20:28:30;;;;;;;;;;;7.50;99.90;;;;;;8279385;28;19909;-77
2023/04/25 20:32:31;;;;;;;;;;;7.20;99.90;;;;;;8290335;28;19917;-77
2023/04/25 20:36:32;;;;;;;;;;;7.20;99.90;;;;;;8293145;28;19918;-77
2023/04/25 20:40:33;;;;;;;;;;;7.50;99.90;;;;;;8274305;28;19976;-77
2023/04/25 20:44:33;;;;;;;;;;;7.30;99.90;;;;;;8273284;28;19937;-77
2023/04/25 20:48:34;;;;;;;;;;;7.10;99.90;;;;;;8274906;28;19949;-76
2023/04/25 20:52:36;;;;;;;;;;;7.10;99.90;;;;;;8272845;28;20282;-77
2023/04/25 20:56:36;;;;;;;;;;;7.00;99.90;;;;;;8288651;28;20298;-76
2023/04/25 21:00:37;;;;;;;;;;;6.80;99.90;;;;;;8272499;28;19920;-76
2023/04/25 21:04:38;;;;;;;;;;;6.70;99.90;;;;;;8294928;28;20008;-76
2023/04/25 21:08:38;;;;;;;;;;;6.60;99.90;;;;;;8283745;28;20298;-77
2023/04/25 21:12:39;;;;;;;;;;;6.50;99.90;;;;;;8299575;28;20533;-79
2023/04/25 21:16:41;;;;;;;;;;;6.50;99.90;;;;;;8303278;28;19924;-78
2023/04/25 21:20:42;;;;;;;;;;;6.20;99.90;;;;;;8279621;28;19923;-80
2023/04/25 21:24:42;;;;;;;;;;;6.30;99.90;;;;;;8293753;28;19914;-79
2023/04/25 21:28:42;;;;;;;;;;;6.50;99.90;;;;;;8295186;28;19924;-77
2023/04/25 21:32:44;;;;;;;;;;;6.40;99.90;;;;;;8277878;28;20417;-77
2023/04/25 21:36:44;;;;;;;;;;;6.40;99.90;;;;;;8295510;28;19990;-78
2023/04/25 21:40:45;;;;;;;;;;;6.30;99.90;;;;;;8277640;28;19956;-78
2023/04/25 21:44:45;;;;;;;;;;;6.20;99.90;;;;;;8277682;28;20001;-79
2023/04/25 21:48:46;;;;;;;;;;;6.00;99.90;;;;;;8280024;28;20030;-78
2023/04/25 21:52:47;;;;;;;;;;;6.30;99.90;;;;;;8278271;28;19910;-77
2023/04/25 21:56:47;;;;;;;;;;;6.70;99.90;;;;;;8293704;28;20422;-77
2023/04/25 22:00:48;;;;;;;;;;;6.70;99.90;;;;;;8291237;28;20044;-78
2023/04/25 22:04:49;;;;;;;;;;;6.60;99.90;;;;;;8293085;28;19910;-78
2023/04/25 22:08:49;;;;;;;;;;;6.30;99.90;;;;;;8282294;28;19910;-78
2023/04/25 22:12:50;;;;;;;;;;;6.30;99.90;;;;;;8292256;28;19952;-77
2023/04/25 22:16:53;;;;;;;;;;;6.50;99.90;;;;;;8277240;28;20024;-78
2023/04/25 22:20:53;;;;;;;;;;;6.40;99.90;;;;;;8293182;28;19921;-77
2023/04/25 22:24:54;;;;;;;;;;;6.10;99.90;;;;;;8290140;28;20533;-78
2023/04/25 22:28:54;;;;;;;;;;;6.10;99.90;;;;;;8283106;28;19913;-79
2023/04/25 22:32:55;;;;;;;;;;;5.90;99.90;;;;;;8289153;28;19920;-78
2023/04/25 22:36:56;;;;;;;;;;;6.00;99.90;;;;;;8291743;28;20470;-78
2023/04/25 22:40:56;;;;;;;;;;;6.20;99.90;;;;;;8273236;28;20483;-78
2023/04/25 22:44:58;;;;;;;;;;;6.10;99.90;;;;;;8272117;28;19917;-78
2023/04/25 22:48:58;;;;;;;;;;;6.20;99.90;;;;;;8278153;28;19957;-78
2023/04/25 22:52:59;;;;;;;;;;;5.90;99.90;;;;;;8294682;28;20325;-78
2023/04/25 22:56:59;;;;;;;;;;;6.10;99.90;;;;;;8276099;28;19948;-77
2023/04/25 23:01:00;;;;;;;;;;;6.10;99.90;;;;;;8291510;28;20504;-77
2023/04/25 23:05:01;;;;;;;;;;;5.90;99.90;;;;;;8292755;28;19921;-78
2023/04/25 23:09:02;;;;;;;;;;;5.90;99.90;;;;;;8293281;28;20460;-77
2023/04/25 23:13:02;;;;;;;;;;;5.90;99.90;;;;;;8269282;28;19976;-78
2023/04/25 23:17:03;;;;;;;;;;;5.70;99.90;;;;;;8273250;28;20000;-77
2023/04/25 23:21:06;;;;;;;;;;;6.00;99.90;;;;;;8292134;28;19913;-80
2023/04/25 23:25:07;;;;;;;;;;;6.00;99.90;;;;;;8291634;28;19910;-78
2023/04/25 23:29:07;;;;;;;;;;;5.90;99.90;;;;;;8272058;28;19917;-78
2023/04/25 23:33:08;;;;;;;;;;;6.00;99.90;;;;;;8289012;28;19921;-78
2023/04/25 23:37:09;;;;;;;;;;;6.00;99.90;;;;;;8291204;28;19917;-78